IBE1VH LEAS-LEZL
Flight info
| Callsign | IBE1VH |
|---|---|
| Flight time | N/A |
| Altitude | 31000 |
| Route | KUVAN Y27 LARVO DCT ZMR DCT AVILA DCT NVS DCT TLD DCT DOPEN DCT MONTO DCT MOLIN DCT HIJ |
| Aircraft | A320/M-SDE3FGHIRWY/LB1 |
Departure
| Time | 2026-05-08 16:22 |
|---|---|
| Airport | Asturias Airport (LEAS) |
Arrival
| Time | N/A |
|---|---|
| Airport | Seville Airport (LEZL) |
| Time | Latitude | Longitude | Altitude | Speed | Heading |
|---|---|---|---|---|---|
| 2026-05-08 16:02 | 43.55983 | -6.03158 | 412 ft | 0 kts | 197° |
| 2026-05-08 16:18 | 43.55982 | -6.03164 | 421 ft | 1 kts | 243° |
| 2026-05-08 16:18 | 43.55986 | -6.03171 | 421 ft | 1 kts | 314° |
| 2026-05-08 16:18 | 43.55999 | -6.03166 | 415 ft | 6 kts | 16° |
| 2026-05-08 16:18 | 43.56026 | -6.03107 | 414 ft | 8 kts | 88° |
| 2026-05-08 16:19 | 43.56012 | -6.03040 | 415 ft | 6 kts | 108° |
| 2026-05-08 16:19 | 43.55999 | -6.02984 | 419 ft | 8 kts | 108° |
| 2026-05-08 16:19 | 43.56024 | -6.02901 | 413 ft | 13 kts | 23° |
| 2026-05-08 16:19 | 43.56025 | -6.02767 | 419 ft | 18 kts | 108° |
| 2026-05-08 16:20 | 43.55985 | -6.02593 | 419 ft | 20 kts | 108° |
| 2026-05-08 16:20 | 43.55945 | -6.02415 | 418 ft | 18 kts | 100° |
| 2026-05-08 16:20 | 43.55968 | -6.02291 | 415 ft | 13 kts | 64° |
| 2026-05-08 16:20 | 43.56034 | -6.02211 | 417 ft | 14 kts | 359° |
| 2026-05-08 16:21 | 43.56083 | -6.02308 | 411 ft | 17 kts | 286° |
| 2026-05-08 16:21 | 43.56180 | -6.02712 | 422 ft | 79 kts | 288° |
| 2026-05-08 16:21 | 43.56375 | -6.03526 | 413 ft | 122 kts | 288° |
| 2026-05-08 16:21 | 43.56688 | -6.04859 | 617 ft | 159 kts | 288° |
| 2026-05-08 16:22 | 43.57026 | -6.06315 | 1328 ft | 161 kts | 289° |
| 2026-05-08 16:22 | 43.57255 | -6.07292 | 1817 ft | 163 kts | 290° |
| 2026-05-08 16:22 | 43.57765 | -6.09439 | 2263 ft | 191 kts | 288° |
| 2026-05-08 16:22 | 43.58202 | -6.11279 | 2539 ft | 213 kts | 288° |
| 2026-05-08 16:23 | 43.58673 | -6.13264 | 3062 ft | 220 kts | 288° |
| 2026-05-08 16:23 | 43.59132 | -6.15298 | 3736 ft | 223 kts | 280° |
| 2026-05-08 16:23 | 43.58970 | -6.17360 | 4532 ft | 219 kts | 240° |
| 2026-05-08 16:23 | 43.57869 | -6.18754 | 5257 ft | 221 kts | 204° |
| 2026-05-08 16:24 | 43.56315 | -6.19355 | 5591 ft | 245 kts | 193° |
| 2026-05-08 16:24 | 43.54576 | -6.19847 | 6115 ft | 262 kts | 192° |
| 2026-05-08 16:24 | 43.52773 | -6.20333 | 6903 ft | 266 kts | 192° |
| 2026-05-08 16:24 | 43.50948 | -6.20823 | 7751 ft | 268 kts | 192° |
| 2026-05-08 16:25 | 43.49135 | -6.21313 | 8564 ft | 270 kts | 192° |
| 2026-05-08 16:25 | 43.47284 | -6.21819 | 9462 ft | 272 kts | 192° |
| 2026-05-08 16:25 | 43.45419 | -6.22331 | 10205 ft | 278 kts | 191° |
| 2026-05-08 16:25 | 43.43441 | -6.22873 | 10453 ft | 301 kts | 191° |
| 2026-05-08 16:26 | 43.41308 | -6.23453 | 10652 ft | 324 kts | 191° |
| 2026-05-08 16:26 | 43.39040 | -6.24071 | 11080 ft | 337 kts | 191° |
| 2026-05-08 16:26 | 43.36721 | -6.24703 | 11727 ft | 341 kts | 191° |
| 2026-05-08 16:26 | 43.34381 | -6.25342 | 12432 ft | 344 kts | 191° |
| 2026-05-08 16:27 | 43.32024 | -6.25989 | 13121 ft | 347 kts | 191° |